sensor_id;sensor_type;location;lat;lon;timestamp;temperature;humidity
42031;DHT22;27709;52.036;5.906;2023-03-01T00:01:59;-2.40;99.90
42031;DHT22;27709;52.036;5.906;2023-03-01T00:04:25;-2.40;99.90
42031;DHT22;27709;52.036;5.906;2023-03-01T00:06:51;-2.40;99.90
42031;DHT22;27709;52.036;5.906;2023-03-01T00:09:16;-2.40;99.90
42031;DHT22;27709;52.036;5.906;2023-03-01T00:11:42;-2.30;99.90
42031;DHT22;27709;52.036;5.906;2023-03-01T00:14:08;-2.30;99.90
42031;DHT22;27709;52.036;5.906;2023-03-01T00:16:36;-2.40;99.90
42031;DHT22;27709;52.036;5.906;2023-03-01T00:19:04;-2.40;99.90
42031;DHT22;27709;52.036;5.906;2023-03-01T00:21:30;-2.40;99.90
42031;DHT22;27709;52.036;5.906;2023-03-01T00:23:56;-2.40;99.90
42031;DHT22;27709;52.036;5.906;2023-03-01T00:26:24;-2.50;99.90
42031;DHT22;27709;52.036;5.906;2023-03-01T00:28:50;-2.50;99.90
42031;DHT22;27709;52.036;5.906;2023-03-01T00:31:18;-2.60;99.90
42031;DHT22;27709;52.036;5.906;2023-03-01T00:33:44;-2.60;99.90
42031;DHT22;27709;52.036;5.906;2023-03-01T00:36:12;-2.70;99.90
42031;DHT22;27709;52.036;5.906;2023-03-01T00:38:39;-2.70;99.90
42031;DHT22;27709;52.036;5.906;2023-03-01T00:41:10;-2.70;99.90
42031;DHT22;27709;52.036;5.906;2023-03-01T00:43:36;-2.70;99.90
42031;DHT22;27709;52.036;5.906;2023-03-01T00:46:11;-2.70;99.90
42031;DHT22;27709;52.036;5.906;2023-03-01T00:48:38;-2.70;99.90
42031;DHT22;27709;52.036;5.906;2023-03-01T00:51:25;-2.70;99.90
42031;DHT22;27709;52.036;5.906;2023-03-01T00:53:52;-2.70;99.90
42031;DHT22;27709;52.036;5.906;2023-03-01T00:56:19;-2.70;99.90
42031;DHT22;27709;52.036;5.906;2023-03-01T00:58:45;-2.80;99.90
42031;DHT22;27709;52.036;5.906;2023-03-01T01:01:16;-2.80;99.90
42031;DHT22;27709;52.036;5.906;2023-03-01T01:03:51;-2.80;99.90
42031;DHT22;27709;52.036;5.906;2023-03-01T01:06:41;-2.90;99.90
42031;DHT22;27709;52.036;5.906;2023-03-01T01:09:11;-2.90;99.90
42031;DHT22;27709;52.036;5.906;2023-03-01T01:11:49;-2.90;99.90
42031;DHT22;27709;52.036;5.906;2023-03-01T01:14:15;-2.90;99.90
42031;DHT22;27709;52.036;5.906;2023-03-01T01:16:45;-2.90;99.90
42031;DHT22;27709;52.036;5.906;2023-03-01T01:19:11;-2.90;99.90
42031;DHT22;27709;52.036;5.906;2023-03-01T01:21:37;-2.90;99.90
42031;DHT22;27709;52.036;5.906;2023-03-01T01:24:04;-2.90;99.90
42031;DHT22;27709;52.036;5.906;2023-03-01T01:26:31;-2.90;99.90
42031;DHT22;27709;52.036;5.906;2023-03-01T01:28:59;-2.90;99.90
42031;DHT22;27709;52.036;5.906;2023-03-01T01:31:25;-2.90;99.90
42031;DHT22;27709;52.036;5.906;2023-03-01T01:33:52;-2.90;99.90
42031;DHT22;27709;52.036;5.906;2023-03-01T01:36:18;-2.90;99.90
42031;DHT22;27709;52.036;5.906;2023-03-01T01:38:44;-2.90;99.90
42031;DHT22;27709;52.036;5.906;2023-03-01T01:41:11;-2.90;99.90
42031;DHT22;27709;52.036;5.906;2023-03-01T01:43:40;-2.90;99.90
42031;DHT22;27709;52.036;5.906;2023-03-01T01:46:24;-2.90;99.90
42031;DHT22;27709;52.036;5.906;2023-03-01T01:49:04;-2.80;99.90
42031;DHT22;27709;52.036;5.906;2023-03-01T01:51:35;-2.90;99.90
42031;DHT22;27709;52.036;5.906;2023-03-01T01:54:09;-3.00;99.90
42031;DHT22;27709;52.036;5.906;2023-03-01T01:56:38;-3.00;99.90
42031;DHT22;27709;52.036;5.906;2023-03-01T01:59:04;-3.00;99.90
42031;DHT22;27709;52.036;5.906;2023-03-01T02:01:30;-3.10;99.90
42031;DHT22;27709;52.036;5.906;2023-03-01T02:03:56;-3.10;99.90
42031;DHT22;27709;52.036;5.906;2023-03-01T02:06:28;-3.10;99.90
42031;DHT22;27709;52.036;5.906;2023-03-01T02:08:57;-3.10;99.90
42031;DHT22;27709;52.036;5.906;2023-03-01T02:11:25;-3.00;99.90
42031;DHT22;27709;52.036;5.906;2023-03-01T02:13:52;-3.00;99.90
42031;DHT22;27709;52.036;5.906;2023-03-01T02:16:18;-3.00;99.90
42031;DHT22;27709;52.036;5.906;2023-03-01T02:18:44;-3.00;99.90
42031;DHT22;27709;52.036;5.906;2023-03-01T02:24:00;-2.90;99.90
42031;DHT22;27709;52.036;5.906;2023-03-01T02:26:33;-2.90;99.90
42031;DHT22;27709;52.036;5.906;2023-03-01T02:29:03;-2.90;99.90
42031;DHT22;27709;52.036;5.906;2023-03-01T02:31:31;-2.90;99.90
42031;DHT22;27709;52.036;5.906;2023-03-01T02:37:02;-3.00;99.90
42031;DHT22;27709;52.036;5.906;2023-03-01T02:39:37;-3.00;99.90
42031;DHT22;27709;52.036;5.906;2023-03-01T02:42:10;-3.10;99.90
42031;DHT22;27709;52.036;5.906;2023-03-01T02:44:37;-3.10;99.90
42031;DHT22;27709;52.036;5.906;2023-03-01T02:47:04;-3.10;99.90
42031;DHT22;27709;52.036;5.906;2023-03-01T02:49:33;-3.10;99.90
42031;DHT22;27709;52.036;5.906;2023-03-01T02:52:27;-3.20;99.90
42031;DHT22;27709;52.036;5.906;2023-03-01T02:55:06;-3.20;99.90
42031;DHT22;27709;52.036;5.906;2023-03-01T02:57:39;-3.20;99.90
42031;DHT22;27709;52.036;5.906;2023-03-01T03:00:17;-3.20;99.90
42031;DHT22;27709;52.036;5.906;2023-03-01T03:02:47;-3.30;99.90
42031;DHT22;27709;52.036;5.906;2023-03-01T03:05:18;-3.30;99.90
42031;DHT22;27709;52.036;5.906;2023-03-01T03:08:03;-3.30;99.90
42031;DHT22;27709;52.036;5.906;2023-03-01T03:10:36;-3.30;99.90
42031;DHT22;27709;52.036;5.906;2023-03-01T03:13:07;-3.30;99.90
42031;DHT22;27709;52.036;5.906;2023-03-01T03:18:13;-3.30;99.90
42031;DHT22;27709;52.036;5.906;2023-03-01T03:20:40;-3.30;99.90
42031;DHT22;27709;52.036;5.906;2023-03-01T03:23:09;-3.40;99.90
42031;DHT22;27709;52.036;5.906;2023-03-01T03:25:36;-3.50;99.90
42031;DHT22;27709;52.036;5.906;2023-03-01T03:28:03;-3.50;99.90
42031;DHT22;27709;52.036;5.906;2023-03-01T03:30:37;-3.40;99.90
42031;DHT22;27709;52.036;5.906;2023-03-01T03:33:06;-3.40;99.90
42031;DHT22;27709;52.036;5.906;2023-03-01T03:35:45;-3.40;99.90
42031;DHT22;27709;52.036;5.906;2023-03-01T03:38:13;-3.40;99.90
42031;DHT22;27709;52.036;5.906;2023-03-01T03:40:46;-3.40;99.90
42031;DHT22;27709;52.036;5.906;2023-03-01T03:43:20;-3.40;99.90
42031;DHT22;27709;52.036;5.906;2023-03-01T03:45:48;-3.40;99.90
42031;DHT22;27709;52.036;5.906;2023-03-01T03:48:15;-3.40;99.90
42031;DHT22;27709;52.036;5.906;2023-03-01T03:50:48;-3.40;99.90
42031;DHT22;27709;52.036;5.906;2023-03-01T03:53:15;-3.40;99.90
42031;DHT22;27709;52.036;5.906;2023-03-01T03:55:42;-3.40;99.90
42031;DHT22;27709;52.036;5.906;2023-03-01T03:58:10;-3.40;99.90
42031;DHT22;27709;52.036;5.906;2023-03-01T05:30:10;-3.70;99.90
42031;DHT22;27709;52.036;5.906;2023-03-01T05:35:59;-3.80;99.90
42031;DHT22;27709;52.036;5.906;2023-03-01T05:38:25;-3.90;99.90
42031;DHT22;27709;52.036;5.906;2023-03-01T05:40:50;-3.90;99.90
42031;DHT22;27709;52.036;5.906;2023-03-01T05:43:16;-3.90;99.90
42031;DHT22;27709;52.036;5.906;2023-03-01T05:45:42;-3.90;99.90
42031;DHT22;27709;52.036;5.906;2023-03-01T05:48:09;-4.00;99.90
42031;DHT22;27709;52.036;5.906;2023-03-01T05:50:37;-4.10;99.90
42031;DHT22;27709;52.036;5.906;2023-03-01T05:53:07;-4.10;99.90
42031;DHT22;27709;52.036;5.906;2023-03-01T05:55:35;-4.10;99.90
42031;DHT22;27709;52.036;5.906;2023-03-01T05:58:03;-4.00;99.90
42031;DHT22;27709;52.036;5.906;2023-03-01T06:00:29;-4.00;99.90
42031;DHT22;27709;52.036;5.906;2023-03-01T06:02:56;-4.00;99.90
42031;DHT22;27709;52.036;5.906;2023-03-01T06:05:22;-4.00;99.90
42031;DHT22;27709;52.036;5.906;2023-03-01T06:07:49;-4.10;99.90
42031;DHT22;27709;52.036;5.906;2023-03-01T06:10:16;-4.00;99.90
42031;DHT22;27709;52.036;5.906;2023-03-01T06:12:42;-4.10;99.90
42031;DHT22;27709;52.036;5.906;2023-03-01T06:15:10;-4.00;99.90
42031;DHT22;27709;52.036;5.906;2023-03-01T06:17:37;-4.00;99.90
42031;DHT22;27709;52.036;5.906;2023-03-01T06:20:20;-4.10;99.90
42031;DHT22;27709;52.036;5.906;2023-03-01T06:22:47;-4.00;99.90
42031;DHT22;27709;52.036;5.906;2023-03-01T06:25:16;-4.00;99.90
42031;DHT22;27709;52.036;5.906;2023-03-01T06:27:42;-3.90;99.90
42031;DHT22;27709;52.036;5.906;2023-03-01T06:30:10;-3.90;99.90
42031;DHT22;27709;52.036;5.906;2023-03-01T06:32:36;-3.90;99.90
42031;DHT22;27709;52.036;5.906;2023-03-01T06:35:03;-3.90;99.90
42031;DHT22;27709;52.036;5.906;2023-03-01T06:37:29;-3.90;99.90
42031;DHT22;27709;52.036;5.906;2023-03-01T06:39:54;-3.80;99.90
42031;DHT22;27709;52.036;5.906;2023-03-01T06:42:20;-3.70;99.90
42031;DHT22;27709;52.036;5.906;2023-03-01T06:44:45;-3.70;99.90
42031;DHT22;27709;52.036;5.906;2023-03-01T06:47:11;-3.70;99.90
42031;DHT22;27709;52.036;5.906;2023-03-01T06:49:37;-3.70;99.90
42031;DHT22;27709;52.036;5.906;2023-03-01T06:52:02;-3.60;99.90
42031;DHT22;27709;52.036;5.906;2023-03-01T06:54:28;-3.60;99.90
42031;DHT22;27709;52.036;5.906;2023-03-01T06:56:53;-3.50;99.90
42031;DHT22;27709;52.036;5.906;2023-03-01T06:59:19;-3.40;99.90
42031;DHT22;27709;52.036;5.906;2023-03-01T07:01:45;-3.20;99.90
42031;DHT22;27709;52.036;5.906;2023-03-01T07:04:11;-2.90;99.90
42031;DHT22;27709;52.036;5.906;2023-03-01T07:06:37;-2.70;99.90
42031;DHT22;27709;52.036;5.906;2023-03-01T07:09:03;-2.60;99.90
42031;DHT22;27709;52.036;5.906;2023-03-01T07:11:28;-2.50;99.90
42031;DHT22;27709;52.036;5.906;2023-03-01T07:13:54;-2.40;99.90
42031;DHT22;27709;52.036;5.906;2023-03-01T07:16:20;-2.30;99.90
42031;DHT22;27709;52.036;5.906;2023-03-01T07:18:47;-2.30;99.90
42031;DHT22;27709;52.036;5.906;2023-03-01T07:21:14;-2.30;99.90
42031;DHT22;27709;52.036;5.906;2023-03-01T07:23:40;-2.30;99.90
42031;DHT22;27709;52.036;5.906;2023-03-01T07:26:05;-2.30;99.90
42031;DHT22;27709;52.036;5.906;2023-03-01T07:28:31;-2.30;99.90
42031;DHT22;27709;52.036;5.906;2023-03-01T07:31:02;-2.20;99.90
42031;DHT22;27709;52.036;5.906;2023-03-01T07:33:28;-2.20;99.90
42031;DHT22;27709;52.036;5.906;2023-03-01T07:36:01;-2.10;99.90
42031;DHT22;27709;52.036;5.906;2023-03-01T07:38:28;-2.00;99.90
42031;DHT22;27709;52.036;5.906;2023-03-01T07:41:00;-1.90;99.90
42031;DHT22;27709;52.036;5.906;2023-03-01T07:43:27;-1.80;99.90
42031;DHT22;27709;52.036;5.906;2023-03-01T07:45:53;-1.70;99.90
42031;DHT22;27709;52.036;5.906;2023-03-01T07:48:18;-1.30;99.90
42031;DHT22;27709;52.036;5.906;2023-03-01T07:50:44;-0.80;99.90
42031;DHT22;27709;52.036;5.906;2023-03-01T07:53:10;-0.20;99.90
42031;DHT22;27709;52.036;5.906;2023-03-01T07:55:36;0.40;99.90
42031;DHT22;27709;52.036;5.906;2023-03-01T07:58:02;1.00;99.90
42031;DHT22;27709;52.036;5.906;2023-03-01T08:00:27;1.60;99.90
42031;DHT22;27709;52.036;5.906;2023-03-01T08:02:53;2.00;99.90
42031;DHT22;27709;52.036;5.906;2023-03-01T08:05:18;2.40;99.90
42031;DHT22;27709;52.036;5.906;2023-03-01T08:07:44;2.70;99.90
42031;DHT22;27709;52.036;5.906;2023-03-01T08:10:10;3.00;99.90
42031;DHT22;27709;52.036;5.906;2023-03-01T08:12:36;3.40;99.90
42031;DHT22;27709;52.036;5.906;2023-03-01T08:15:01;3.70;99.90
42031;DHT22;27709;52.036;5.906;2023-03-01T08:17:27;4.10;99.90
42031;DHT22;27709;52.036;5.906;2023-03-01T08:19:52;4.30;99.90
42031;DHT22;27709;52.036;5.906;2023-03-01T08:22:18;4.60;99.90
42031;DHT22;27709;52.036;5.906;2023-03-01T08:24:46;4.90;99.90
42031;DHT22;27709;52.036;5.906;2023-03-01T08:27:14;5.20;99.90
42031;DHT22;27709;52.036;5.906;2023-03-01T08:29:46;5.40;99.90
42031;DHT22;27709;52.036;5.906;2023-03-01T08:32:18;5.70;99.70
42031;DHT22;27709;52.036;5.906;2023-03-01T08:34:46;6.00;99.00
42031;DHT22;27709;52.036;5.906;2023-03-01T08:37:12;6.30;98.10
42031;DHT22;27709;52.036;5.906;2023-03-01T08:39:38;6.50;98.20
42031;DHT22;27709;52.036;5.906;2023-03-01T08:42:03;6.70;97.30
42031;DHT22;27709;52.036;5.906;2023-03-01T08:44:29;6.90;97.10
42031;DHT22;27709;52.036;5.906;2023-03-01T08:46:54;7.10;95.80
42031;DHT22;27709;52.036;5.906;2023-03-01T08:49:21;7.30;95.50
42031;DHT22;27709;52.036;5.906;2023-03-01T08:51:47;7.40;94.70
42031;DHT22;27709;52.036;5.906;2023-03-01T08:54:20;7.50;94.00
42031;DHT22;27709;52.036;5.906;2023-03-01T08:56:46;7.60;93.60
42031;DHT22;27709;52.036;5.906;2023-03-01T08:59:13;7.70;93.30
42031;DHT22;27709;52.036;5.906;2023-03-01T09:01:39;7.80;93.20
42031;DHT22;27709;52.036;5.906;2023-03-01T09:04:05;7.90;90.70
42031;DHT22;27709;52.036;5.906;2023-03-01T09:06:32;7.90;91.40
42031;DHT22;27709;52.036;5.906;2023-03-01T09:08:58;8.00;90.20
42031;DHT22;27709;52.036;5.906;2023-03-01T09:11:24;8.00;90.30
42031;DHT22;27709;52.036;5.906;2023-03-01T09:13:49;8.00;90.40
42031;DHT22;27709;52.036;5.906;2023-03-01T09:16:17;7.90;87.70
42031;DHT22;27709;52.036;5.906;2023-03-01T09:18:43;7.90;87.30
42031;DHT22;27709;52.036;5.906;2023-03-01T09:21:12;7.90;88.50
42031;DHT22;27709;52.036;5.906;2023-03-01T09:23:42;8.10;88.90
42031;DHT22;27709;52.036;5.906;2023-03-01T09:26:13;8.20;86.00
42031;DHT22;27709;52.036;5.906;2023-03-01T09:28:41;8.30;87.10
42031;DHT22;27709;52.036;5.906;2023-03-01T09:31:12;8.40;85.50
42031;DHT22;27709;52.036;5.906;2023-03-01T09:33:41;8.40;84.90
42031;DHT22;27709;52.036;5.906;2023-03-01T09:36:10;8.20;81.50
42031;DHT22;27709;52.036;5.906;2023-03-01T09:38:36;8.20;82.10
42031;DHT22;27709;52.036;5.906;2023-03-01T09:41:02;8.10;79.20
42031;DHT22;27709;52.036;5.906;2023-03-01T09:43:45;8.00;80.00
42031;DHT22;27709;52.036;5.906;2023-03-01T09:46:14;7.90;79.30
42031;DHT22;27709;52.036;5.906;2023-03-01T09:51:17;7.90;78.50
42031;DHT22;27709;52.036;5.906;2023-03-01T09:53:44;7.90;77.50
42031;DHT22;27709;52.036;5.906;2023-03-01T10:01:30;7.40;77.80
42031;DHT22;27709;52.036;5.906;2023-03-01T10:06:51;7.30;78.50
42031;DHT22;27709;52.036;5.906;2023-03-01T10:09:19;7.40;78.50
42031;DHT22;27709;52.036;5.906;2023-03-01T10:11:50;7.60;79.20
42031;DHT22;27709;52.036;5.906;2023-03-01T10:17:09;7.80;75.80
42031;DHT22;27709;52.036;5.906;2023-03-01T10:19:37;7.90;76.70
42031;DHT22;27709;52.036;5.906;2023-03-01T10:24:48;8.20;77.80
42031;DHT22;27709;52.036;5.906;2023-03-01T10:27:23;8.40;78.00
42031;DHT22;27709;52.036;5.906;2023-03-01T10:32:28;8.80;74.10
42031;DHT22;27709;52.036;5.906;2023-03-01T10:34:55;8.90;72.10
42031;DHT22;27709;52.036;5.906;2023-03-01T10:37:22;8.90;70.70
42031;DHT22;27709;52.036;5.906;2023-03-01T10:40:08;8.80;72.00
42031;DHT22;27709;52.036;5.906;2023-03-01T10:42:37;8.90;72.00
42031;DHT22;27709;52.036;5.906;2023-03-01T10:45:17;9.00;71.70
42031;DHT22;27709;52.036;5.906;2023-03-01T10:48:45;8.90;71.40
42031;DHT22;27709;52.036;5.906;2023-03-01T10:53:31;8.90;70.80
42031;DHT22;27709;52.036;5.906;2023-03-01T10:56:02;8.80;71.90
42031;DHT22;27709;52.036;5.906;2023-03-01T10:58:29;9.00;73.20
42031;DHT22;27709;52.036;5.906;2023-03-01T11:01:01;9.10;72.50
42031;DHT22;27709;52.036;5.906;2023-03-01T11:03:29;9.20;70.30
42031;DHT22;27709;52.036;5.906;2023-03-01T11:06:20;9.10;70.60
42031;DHT22;27709;52.036;5.906;2023-03-01T11:08:49;9.10;70.60
42031;DHT22;27709;52.036;5.906;2023-03-01T11:11:26;9.20;71.60
42031;DHT22;27709;52.036;5.906;2023-03-01T11:14:16;9.40;69.90
42031;DHT22;27709;52.036;5.906;2023-03-01T11:16:45;9.40;67.80
42031;DHT22;27709;52.036;5.906;2023-03-01T11:19:19;9.40;67.90
42031;DHT22;27709;52.036;5.906;2023-03-01T11:24:17;9.30;68.00
42031;DHT22;27709;52.036;5.906;2023-03-01T11:26:47;9.30;68.80
42031;DHT22;27709;52.036;5.906;2023-03-01T11:29:36;9.30;68.80
42031;DHT22;27709;52.036;5.906;2023-03-01T11:32:06;9.30;68.30
42031;DHT22;27709;52.036;5.906;2023-03-01T11:34:40;9.30;68.10
42031;DHT22;27709;52.036;5.906;2023-03-01T11:37:19;9.30;67.00
42031;DHT22;27709;52.036;5.906;2023-03-01T11:39:58;9.10;66.30
42031;DHT22;27709;52.036;5.906;2023-03-01T11:45:11;8.80;67.70
42031;DHT22;27709;52.036;5.906;2023-03-01T11:50:42;8.80;68.30
42031;DHT22;27709;52.036;5.906;2023-03-01T12:31:33;8.40;67.40
42031;DHT22;27709;52.036;5.906;2023-03-01T12:34:33;8.30;67.00
42031;DHT22;27709;52.036;5.906;2023-03-01T12:37:05;8.40;67.50
42031;DHT22;27709;52.036;5.906;2023-03-01T12:42:33;8.30;66.90
42031;DHT22;27709;52.036;5.906;2023-03-01T12:50:23;8.20;68.40
42031;DHT22;27709;52.036;5.906;2023-03-01T12:52:56;8.20;67.30
42031;DHT22;27709;52.036;5.906;2023-03-01T12:55:36;8.10;67.10
42031;DHT22;27709;52.036;5.906;2023-03-01T12:58:15;8.10;67.60
42031;DHT22;27709;52.036;5.906;2023-03-01T13:06:22;8.30;69.30
42031;DHT22;27709;52.036;5.906;2023-03-01T13:09:04;8.40;69.60
42031;DHT22;27709;52.036;5.906;2023-03-01T13:11:32;8.40;69.80
42031;DHT22;27709;52.036;5.906;2023-03-01T13:16:50;8.40;68.80
42031;DHT22;27709;52.036;5.906;2023-03-01T13:19:21;8.40;69.80
42031;DHT22;27709;52.036;5.906;2023-03-01T13:21:48;8.40;69.30
42031;DHT22;27709;52.036;5.906;2023-03-01T13:24:40;8.50;69.80
42031;DHT22;27709;52.036;5.906;2023-03-01T13:27:11;8.50;69.70
42031;DHT22;27709;52.036;5.906;2023-03-01T13:29:50;8.50;68.50
42031;DHT22;27709;52.036;5.906;2023-03-01T13:32:24;8.60;69.10
42031;DHT22;27709;52.036;5.906;2023-03-01T13:35:00;8.50;69.60
42031;DHT22;27709;52.036;5.906;2023-03-01T13:37:28;8.60;69.10
42031;DHT22;27709;52.036;5.906;2023-03-01T13:39:57;8.50;68.60
42031;DHT22;27709;52.036;5.906;2023-03-01T13:42:37;8.40;68.90
42031;DHT22;27709;52.036;5.906;2023-03-01T13:45:16;8.30;69.30
42031;DHT22;27709;52.036;5.906;2023-03-01T13:47:43;8.30;69.30
42031;DHT22;27709;52.036;5.906;2023-03-01T13:50:23;8.20;68.60
42031;DHT22;27709;52.036;5.906;2023-03-01T13:52:56;8.20;68.70
42031;DHT22;27709;52.036;5.906;2023-03-01T13:55:47;8.10;68.50
42031;DHT22;27709;52.036;5.906;2023-03-01T13:58:58;8.10;68.60
42031;DHT22;27709;52.036;5.906;2023-03-01T14:01:29;8.10;70.00
42031;DHT22;27709;52.036;5.906;2023-03-01T14:03:55;8.10;68.50
42031;DHT22;27709;52.036;5.906;2023-03-01T14:06:24;8.10;68.00
42031;DHT22;27709;52.036;5.906;2023-03-01T14:09:00;8.10;68.50
42031;DHT22;27709;52.036;5.906;2023-03-01T14:19:31;8.20;67.80
42031;DHT22;27709;52.036;5.906;2023-03-01T14:22:26;8.10;67.00
42031;DHT22;27709;52.036;5.906;2023-03-01T14:25:00;8.10;67.30
42031;DHT22;27709;52.036;5.906;2023-03-01T14:27:32;8.10;68.20
42031;DHT22;27709;52.036;5.906;2023-03-01T14:30:00;8.10;68.40
42031;DHT22;27709;52.036;5.906;2023-03-01T14:32:29;8.20;67.90
42031;DHT22;27709;52.036;5.906;2023-03-01T14:34:56;8.10;68.50
42031;DHT22;27709;52.036;5.906;2023-03-01T14:37:31;8.00;67.20
42031;DHT22;27709;52.036;5.906;2023-03-01T14:39:59;7.90;67.90
42031;DHT22;27709;52.036;5.906;2023-03-01T14:42:28;7.90;68.30
42031;DHT22;27709;52.036;5.906;2023-03-01T14:44:57;7.90;67.90
42031;DHT22;27709;52.036;5.906;2023-03-01T14:47:34;7.90;68.00
42031;DHT22;27709;52.036;5.906;2023-03-01T14:50:22;7.90;68.30
42031;DHT22;27709;52.036;5.906;2023-03-01T14:52:51;7.80;68.30
42031;DHT22;27709;52.036;5.906;2023-03-01T14:55:30;7.90;67.80
42031;DHT22;27709;52.036;5.906;2023-03-01T14:57:57;7.80;66.00
42031;DHT22;27709;52.036;5.906;2023-03-01T15:00:28;7.80;67.30
42031;DHT22;27709;52.036;5.906;2023-03-01T15:02:56;7.80;67.50
42031;DHT22;27709;52.036;5.906;2023-03-01T15:05:33;7.80;65.80
42031;DHT22;27709;52.036;5.906;2023-03-01T15:08:00;7.80;66.50
42031;DHT22;27709;52.036;5.906;2023-03-01T15:10:29;7.80;66.40
42031;DHT22;27709;52.036;5.906;2023-03-01T15:12:56;7.80;66.40
42031;DHT22;27709;52.036;5.906;2023-03-01T15:17:56;7.70;67.30
42031;DHT22;27709;52.036;5.906;2023-03-01T15:20:25;7.70;67.20
42031;DHT22;27709;52.036;5.906;2023-03-01T15:22:52;7.70;66.30
42031;DHT22;27709;52.036;5.906;2023-03-01T15:25:22;7.60;67.00
42031;DHT22;27709;52.036;5.906;2023-03-01T15:27:51;7.70;68.10
42031;DHT22;27709;52.036;5.906;2023-03-01T15:30:30;7.70;68.30
42031;DHT22;27709;52.036;5.906;2023-03-01T15:36:00;7.60;67.10
42031;DHT22;27709;52.036;5.906;2023-03-01T15:38:29;7.50;67.30
42031;DHT22;27709;52.036;5.906;2023-03-01T15:40:56;7.40;66.10
42031;DHT22;27709;52.036;5.906;2023-03-01T15:43:38;7.40;66.50
42031;DHT22;27709;52.036;5.906;2023-03-01T15:46:17;7.30;65.70
42031;DHT22;27709;52.036;5.906;2023-03-01T15:48:48;7.30;66.80
42031;DHT22;27709;52.036;5.906;2023-03-01T15:51:21;7.20;66.70
42031;DHT22;27709;52.036;5.906;2023-03-01T15:53:52;7.20;66.20
42031;DHT22;27709;52.036;5.906;2023-03-01T15:56:18;7.10;66.00
42031;DHT22;27709;52.036;5.906;2023-03-01T15:58:44;7.10;65.70
42031;DHT22;27709;52.036;5.906;2023-03-01T16:01:14;7.10;66.00
42031;DHT22;27709;52.036;5.906;2023-03-01T16:03:40;7.00;67.00
42031;DHT22;27709;52.036;5.906;2023-03-01T16:06:07;7.00;66.00
42031;DHT22;27709;52.036;5.906;2023-03-01T16:08:33;7.00;66.50
42031;DHT22;27709;52.036;5.906;2023-03-01T16:10:59;7.00;66.30
42031;DHT22;27709;52.036;5.906;2023-03-01T16:13:24;6.90;66.30
42031;DHT22;27709;52.036;5.906;2023-03-01T16:15:50;6.90;66.50
42031;DHT22;27709;52.036;5.906;2023-03-01T16:18:16;6.80;66.70
42031;DHT22;27709;52.036;5.906;2023-03-01T16:20:42;6.80;67.50
42031;DHT22;27709;52.036;5.906;2023-03-01T16:23:10;6.70;67.50
42031;DHT22;27709;52.036;5.906;2023-03-01T16:25:36;6.70;67.70
42031;DHT22;27709;52.036;5.906;2023-03-01T16:28:03;6.60;67.90
42031;DHT22;27709;52.036;5.906;2023-03-01T16:30:33;6.60;68.10
42031;DHT22;27709;52.036;5.906;2023-03-01T16:33:00;6.50;68.60
42031;DHT22;27709;52.036;5.906;2023-03-01T16:35:26;6.50;68.90
42031;DHT22;27709;52.036;5.906;2023-03-01T16:37:51;6.50;69.20
42031;DHT22;27709;52.036;5.906;2023-03-01T16:40:24;6.40;69.50
42031;DHT22;27709;52.036;5.906;2023-03-01T16:42:52;6.40;69.80
42031;DHT22;27709;52.036;5.906;2023-03-01T16:45:19;6.30;70.00
42031;DHT22;27709;52.036;5.906;2023-03-01T16:47:44;6.30;70.60
42031;DHT22;27709;52.036;5.906;2023-03-01T16:50:10;6.20;71.00
42031;DHT22;27709;52.036;5.906;2023-03-01T16:52:37;6.10;71.50
42031;DHT22;27709;52.036;5.906;2023-03-01T16:55:03;6.10;72.10
42031;DHT22;27709;52.036;5.906;2023-03-01T16:57:30;6.00;72.60
42031;DHT22;27709;52.036;5.906;2023-03-01T16:59:56;6.00;73.20
42031;DHT22;27709;52.036;5.906;2023-03-01T17:02:22;5.90;73.70
42031;DHT22;27709;52.036;5.906;2023-03-01T17:04:54;5.80;74.50
42031;DHT22;27709;52.036;5.906;2023-03-01T17:07:21;5.70;74.90
42031;DHT22;27709;52.036;5.906;2023-03-01T17:09:46;5.60;75.70
42031;DHT22;27709;52.036;5.906;2023-03-01T17:12:13;5.60;76.40
42031;DHT22;27709;52.036;5.906;2023-03-01T17:14:39;5.50;77.00
42031;DHT22;27709;52.036;5.906;2023-03-01T17:17:07;5.40;77.50
42031;DHT22;27709;52.036;5.906;2023-03-01T17:19:33;5.30;78.20
42031;DHT22;27709;52.036;5.906;2023-03-01T17:22:01;5.20;78.60
42031;DHT22;27709;52.036;5.906;2023-03-01T17:24:27;5.10;79.30
42031;DHT22;27709;52.036;5.906;2023-03-01T17:26:52;5.00;79.80
42031;DHT22;27709;52.036;5.906;2023-03-01T17:29:18;4.90;80.40
42031;DHT22;27709;52.036;5.906;2023-03-01T17:31:43;4.80;81.10
42031;DHT22;27709;52.036;5.906;2023-03-01T17:34:09;4.70;81.70
42031;DHT22;27709;52.036;5.906;2023-03-01T17:36:34;4.60;82.40
42031;DHT22;27709;52.036;5.906;2023-03-01T17:39:06;4.60;82.90
42031;DHT22;27709;52.036;5.906;2023-03-01T17:41:31;4.50;83.50
42031;DHT22;27709;52.036;5.906;2023-03-01T17:43:57;4.40;83.90
42031;DHT22;27709;52.036;5.906;2023-03-01T17:46:22;4.30;84.50
42031;DHT22;27709;52.036;5.906;2023-03-01T17:48:48;4.20;85.30
42031;DHT22;27709;52.036;5.906;2023-03-01T17:51:14;4.10;86.00
42031;DHT22;27709;52.036;5.906;2023-03-01T17:53:39;4.00;86.60
42031;DHT22;27709;52.036;5.906;2023-03-01T17:56:06;3.90;87.30
42031;DHT22;27709;52.036;5.906;2023-03-01T17:58:32;3.90;87.90
42031;DHT22;27709;52.036;5.906;2023-03-01T18:01:09;3.80;88.50
42031;DHT22;27709;52.036;5.906;2023-03-01T18:03:35;3.70;89.50
42031;DHT22;27709;52.036;5.906;2023-03-01T18:06:01;3.70;90.00
42031;DHT22;27709;52.036;5.906;2023-03-01T18:08:28;3.60;90.30
42031;DHT22;27709;52.036;5.906;2023-03-01T18:10:57;3.60;90.60
42031;DHT22;27709;52.036;5.906;2023-03-01T18:13:23;3.60;91.00
42031;DHT22;27709;52.036;5.906;2023-03-01T18:15:48;3.50;91.20
42031;DHT22;27709;52.036;5.906;2023-03-01T18:18:14;3.50;91.50
42031;DHT22;27709;52.036;5.906;2023-03-01T18:20:40;3.50;91.70
42031;DHT22;27709;52.036;5.906;2023-03-01T18:23:05;3.40;91.90
42031;DHT22;27709;52.036;5.906;2023-03-01T18:25:31;3.40;92.00
42031;DHT22;27709;52.036;5.906;2023-03-01T18:27:56;3.30;92.40
42031;DHT22;27709;52.036;5.906;2023-03-01T18:30:22;3.20;92.80
42031;DHT22;27709;52.036;5.906;2023-03-01T18:32:47;3.10;93.00
42031;DHT22;27709;52.036;5.906;2023-03-01T18:35:15;3.00;93.20
42031;DHT22;27709;52.036;5.906;2023-03-01T18:37:41;2.90;93.60
42031;DHT22;27709;52.036;5.906;2023-03-01T18:40:07;2.90;94.10
42031;DHT22;27709;52.036;5.906;2023-03-01T18:42:33;2.80;94.90
42031;DHT22;27709;52.036;5.906;2023-03-01T18:44:58;2.70;95.50
42031;DHT22;27709;52.036;5.906;2023-03-01T18:47:24;2.60;95.90
42031;DHT22;27709;52.036;5.906;2023-03-01T18:49:49;2.50;96.20
42031;DHT22;27709;52.036;5.906;2023-03-01T18:52:15;2.50;96.70
42031;DHT22;27709;52.036;5.906;2023-03-01T18:54:41;2.40;96.60
42031;DHT22;27709;52.036;5.906;2023-03-01T18:57:06;2.40;96.90
42031;DHT22;27709;52.036;5.906;2023-03-01T18:59:32;2.40;97.00
42031;DHT22;27709;52.036;5.906;2023-03-01T19:01:57;2.30;97.40
42031;DHT22;27709;52.036;5.906;2023-03-01T19:04:23;2.30;97.60
42031;DHT22;27709;52.036;5.906;2023-03-01T19:06:48;2.20;97.70
42031;DHT22;27709;52.036;5.906;2023-03-01T19:09:14;2.20;98.00
42031;DHT22;27709;52.036;5.906;2023-03-01T19:11:40;2.10;98.30
42031;DHT22;27709;52.036;5.906;2023-03-01T19:14:05;2.10;98.50